Time;durP1;ratioP1;P1;durP2;ratioP2;P2;SDS_P1;SDS_P2;PMS_P1;PMS_P2;Temp;Humidity;BMP_temperature;BMP_pressure;BME280_temperature;BME280_humidity;BME280_pressure;Samples;Min_cycle;Max_cycle;Signal;HPM_P1;HPM_P2
2023/01/07 00:01:24;;;;;;;22.87;12.00;;;10.10;99.90;;;;;;5049989;28;20451;-72
2023/01/07 00:03:51;;;;;;;14.30;8.50;;;10.10;99.90;;;;;;5032588;28;20508;-72
2023/01/07 00:06:23;;;;;;;43.30;19.57;;;10.10;99.90;;;;;;5058437;28;20458;-72
2023/01/07 00:08:51;;;;;;;35.23;16.30;;;10.10;99.90;;;;;;5081046;28;20445;-72
2023/01/07 00:11:31;;;;;;;36.70;18.30;;;10.10;99.90;;;;;;5053011;28;20451;-72
2023/01/07 00:13:59;;;;;;;44.47;20.93;;;10.00;99.90;;;;;;5075426;28;20601;-72
2023/01/07 00:16:27;;;;;;;41.83;19.43;;;10.00;99.90;;;;;;5055205;28;20458;-72
2023/01/07 00:18:55;;;;;;;59.97;24.53;;;10.10;99.90;;;;;;5067830;28;20448;-72
2023/01/07 00:21:22;;;;;;;61.13;27.43;;;10.10;99.90;;;;;;5057845;28;20447;-72
2023/01/07 00:23:48;;;;;;;48.43;23.87;;;10.10;99.90;;;;;;5056387;28;20460;-72
2023/01/07 00:26:15;;;;;;;29.53;15.60;;;10.10;99.90;;;;;;5022049;28;20439;-72
2023/01/07 00:28:42;;;;;;;41.47;23.53;;;10.10;99.90;;;;;;5054556;28;20449;-72
2023/01/07 00:31:11;;;;;;;34.13;17.70;;;10.10;99.90;;;;;;5035861;28;20462;-73
2023/01/07 00:33:46;;;;;;;14.30;8.53;;;10.10;99.90;;;;;;5046603;28;20489;-72
2023/01/07 00:36:12;;;;;;;7.13;4.57;;;10.10;99.90;;;;;;5050766;28;20462;-71
2023/01/07 00:38:38;;;;;;;3.90;2.90;;;10.10;99.90;;;;;;5049378;28;20467;-72
2023/01/07 00:41:04;;;;;;;3.03;2.73;;;10.00;99.90;;;;;;5059236;28;20222;-72
2023/01/07 00:43:31;;;;;;;3.53;2.80;;;10.10;99.90;;;;;;5054246;28;20705;-72
2023/01/07 00:45:56;;;;;;;3.50;2.90;;;10.00;99.90;;;;;;5032543;28;20442;-72
2023/01/07 00:48:22;;;;;;;6.17;5.27;;;10.00;99.90;;;;;;5019632;28;20521;-72
2023/01/07 00:50:50;;;;;;;9.83;6.10;;;10.00;99.90;;;;;;5037847;28;20310;-72
2023/01/07 00:53:16;;;;;;;5.93;4.90;;;10.00;99.90;;;;;;5054060;28;20438;-72
2023/01/07 00:55:42;;;;;;;9.60;7.30;;;10.00;99.90;;;;;;5044465;28;20562;-72
2023/01/07 00:58:19;;;;;;;18.77;11.90;;;10.10;99.90;;;;;;5040319;28;20457;-72
2023/01/07 01:00:44;;;;;;;19.10;14.80;;;10.10;99.90;;;;;;5052216;28;20454;-71
2023/01/07 01:03:11;;;;;;;17.70;11.70;;;10.10;99.90;;;;;;5038756;28;20537;-72
2023/01/07 01:05:37;;;;;;;17.33;11.70;;;10.10;99.90;;;;;;5039318;28;20242;-69
2023/01/07 01:08:03;;;;;;;10.20;8.13;;;10.20;99.90;;;;;;5031509;28;20457;-72
2023/01/07 01:10:28;;;;;;;7.57;6.73;;;10.10;99.90;;;;;;5040428;28;20462;-70
2023/01/07 01:12:54;;;;;;;7.93;5.70;;;10.10;99.90;;;;;;5034307;28;20580;-71
2023/01/07 01:15:20;;;;;;;7.50;6.27;;;10.10;99.90;;;;;;5060197;28;20225;-70
2023/01/07 01:17:46;;;;;;;7.20;5.17;;;10.20;99.90;;;;;;5082716;28;20243;-72
2023/01/07 01:20:14;;;;;;;5.90;4.57;;;10.20;99.90;;;;;;5076797;28;20227;-70
2023/01/07 01:22:40;;;;;;;5.97;3.70;;;10.20;99.90;;;;;;5040175;28;20231;-71
2023/01/07 01:25:06;;;;;;;3.57;3.23;;;10.20;99.90;;;;;;5041605;28;20439;-71
2023/01/07 01:27:32;;;;;;;5.13;3.17;;;10.20;99.90;;;;;;5043195;28;20447;-71
2023/01/07 01:29:58;;;;;;;5.37;3.50;;;10.10;99.90;;;;;;5039218;28;20461;-70
2023/01/07 01:32:25;;;;;;;3.33;2.83;;;10.20;99.90;;;;;;5068508;28;20214;-71
2023/01/07 01:34:50;;;;;;;3.53;2.80;;;10.10;99.90;;;;;;5052593;28;20524;-71
2023/01/07 01:37:16;;;;;;;4.10;2.87;;;10.10;99.90;;;;;;5041679;28;20208;-71
2023/01/07 01:39:42;;;;;;;3.00;2.70;;;10.10;99.90;;;;;;5047922;28;20675;-71
2023/01/07 01:42:13;;;;;;;2.87;2.63;;;10.10;99.90;;;;;;5031466;28;20465;-71
2023/01/07 01:44:47;;;;;;;5.10;2.80;;;10.10;99.90;;;;;;5056032;28;20219;-71
2023/01/07 01:47:21;;;;;;;2.73;2.50;;;10.10;99.90;;;;;;5050376;28;20459;-70
2023/01/07 01:49:55;;;;;;;2.63;2.30;;;10.10;99.90;;;;;;5062410;28;20540;-71
2023/01/07 01:52:35;;;;;;;3.27;2.97;;;10.10;99.90;;;;;;5038496;28;20459;-71
2023/01/07 01:55:04;;;;;;;3.23;2.40;;;10.10;99.90;;;;;;5070835;28;20506;-71
2023/01/07 01:57:34;;;;;;;2.13;1.87;;;10.10;99.90;;;;;;5068949;28;20495;-72
2023/01/07 02:00:00;;;;;;;2.40;2.20;;;10.10;99.90;;;;;;5057445;28;20455;-71
2023/01/07 02:02:39;;;;;;;2.23;2.07;;;10.10;99.90;;;;;;5037009;28;20474;-71
2023/01/07 02:05:06;;;;;;;2.70;2.50;;;10.20;99.90;;;;;;5012622;28;20445;-70
2023/01/07 02:07:32;;;;;;;2.97;2.73;;;10.20;99.90;;;;;;5052786;28;20503;-71
2023/01/07 02:10:01;;;;;;;2.43;2.30;;;10.20;99.90;;;;;;5051448;28;20428;-71
2023/01/07 02:12:40;;;;;;;3.20;2.73;;;10.20;99.90;;;;;;5059094;28;20234;-71
2023/01/07 02:15:06;;;;;;;2.33;2.13;;;10.20;99.90;;;;;;5035663;28;20515;-71
2023/01/07 02:17:46;;;;;;;3.40;2.60;;;10.20;99.90;;;;;;5054918;28;20423;-70
2023/01/07 02:20:15;;;;;;;2.50;2.30;;;10.20;99.90;;;;;;5051476;28;20218;-71
2023/01/07 02:23:13;;;;;;;2.30;2.13;;;10.20;99.90;;;;;;5066963;28;20449;-71
2023/01/07 02:25:58;;;;;;;2.53;2.30;;;10.20;99.90;;;;;;5041255;28;20457;-71
2023/01/07 02:28:52;;;;;;;2.50;2.07;;;10.20;99.90;;;;;;5050878;28;20505;-71
2023/01/07 02:31:31;;;;;;;1.70;1.60;;;10.20;99.90;;;;;;5053711;28;21000;-71
2023/01/07 02:34:12;;;;;;;1.90;1.80;;;10.20;99.90;;;;;;5060730;28;20445;-71
2023/01/07 02:37:11;;;;;;;2.03;1.93;;;10.20;99.90;;;;;;5075089;28;20483;-70
2023/01/07 02:39:49;;;;;;;2.33;2.10;;;10.20;99.90;;;;;;5053697;28;20481;-73
2023/01/07 02:42:39;;;;;;;2.23;2.03;;;10.20;99.90;;;;;;5053056;28;20469;-71
2023/01/07 02:45:17;;;;;;;2.37;2.17;;;10.20;99.90;;;;;;5068111;28;20477;-72
2023/01/07 02:47:50;;;;;;;2.20;2.00;;;10.20;99.90;;;;;;5059076;28;20815;-71
2023/01/07 02:50:15;;;;;;;1.90;1.80;;;10.20;99.90;;;;;;5060725;28;20481;-71
2023/01/07 02:52:41;;;;;;;2.17;1.97;;;10.20;99.90;;;;;;5047851;28;20449;-72
2023/01/07 02:55:20;;;;;;;2.90;2.70;;;10.20;99.90;;;;;;5064082;28;20219;-71
2023/01/07 02:58:02;;;;;;;1.87;1.73;;;10.20;99.90;;;;;;5035930;28;20231;-71
2023/01/07 03:00:44;;;;;;;1.63;1.53;;;10.10;99.90;;;;;;5037570;28;20492;-70
2023/01/07 03:03:12;;;;;;;2.07;1.77;;;10.20;99.90;;;;;;5063354;28;20453;-71
2023/01/07 03:05:46;;;;;;;1.80;1.70;;;10.20;99.90;;;;;;5043475;28;20463;-71
2023/01/07 03:08:47;;;;;;;1.80;1.70;;;10.20;99.90;;;;;;5054306;28;20461;-72
2023/01/07 03:11:15;;;;;;;1.50;1.40;;;10.20;99.90;;;;;;5013643;28;20477;-71
2023/01/07 03:13:47;;;;;;;4.30;1.93;;;10.20;99.90;;;;;;5030824;28;20517;-71
2023/01/07 03:16:22;;;;;;;1.83;1.67;;;10.20;99.90;;;;;;5051481;28;20470;-69
2023/01/07 03:19:10;;;;;;;1.83;1.70;;;10.20;99.90;;;;;;5031976;28;20496;-71
2023/01/07 03:21:37;;;;;;;1.60;1.50;;;10.20;99.90;;;;;;5048033;28;20474;-72
2023/01/07 03:24:06;;;;;;;1.53;1.43;;;10.20;99.90;;;;;;5031357;28;20534;-72
2023/01/07 03:26:38;;;;;;;2.30;2.10;;;10.20;99.90;;;;;;5057293;28;20477;-71
2023/01/07 03:29:06;;;;;;;2.20;2.00;;;10.20;99.90;;;;;;5054784;28;20541;-71
2023/01/07 03:31:35;;;;;;;2.50;1.93;;;10.20;99.90;;;;;;5049878;28;20490;-71
2023/01/07 03:34:10;;;;;;;1.40;1.30;;;10.10;99.90;;;;;;5042565;28;20453;-71
2023/01/07 03:36:43;;;;;;;1.53;1.40;;;10.00;99.90;;;;;;5027614;28;20481;-71
2023/01/07 03:39:11;;;;;;;2.60;1.70;;;10.00;99.90;;;;;;5020666;28;20475;-72
2023/01/07 03:44:24;;;;;;;2.60;1.90;;;10.10;99.90;;;;;;5011960;28;20461;-72
2023/01/07 03:46:52;;;;;;;1.10;1.00;;;10.10;99.90;;;;;;5071011;28;20477;-72
2023/01/07 03:49:17;;;;;;;1.37;1.20;;;10.10;99.90;;;;;;5063131;28;20222;-71
2023/01/07 03:51:44;;;;;;;1.60;1.50;;;10.10;99.90;;;;;;5045876;28;20463;-72
2023/01/07 03:54:11;;;;;;;1.60;1.50;;;10.10;99.90;;;;;;5037261;28;20220;-72
2023/01/07 03:56:37;;;;;;;1.23;1.13;;;10.10;99.90;;;;;;5029933;28;20546;-72
2023/01/07 03:59:02;;;;;;;2.40;1.70;;;10.10;99.90;;;;;;5058670;28;20525;-72
2023/01/07 04:01:29;;;;;;;1.50;1.40;;;10.10;99.90;;;;;;5048381;28;20219;-72
2023/01/07 04:03:55;;;;;;;1.77;1.67;;;10.10;99.90;;;;;;5040757;28;20296;-72
2023/01/07 04:06:21;;;;;;;1.20;1.10;;;10.10;99.90;;;;;;5052045;28;20492;-72
2023/01/07 04:08:47;;;;;;;1.90;1.70;;;10.10;99.90;;;;;;5047098;28;20477;-71
2023/01/07 04:11:13;;;;;;;1.30;1.20;;;10.10;99.90;;;;;;5031003;28;20216;-72
2023/01/07 04:13:38;;;;;;;1.60;1.27;;;10.10;99.90;;;;;;5051574;28;20487;-72
2023/01/07 04:16:04;;;;;;;1.20;1.10;;;10.10;99.90;;;;;;5039480;28;20232;-73
2023/01/07 04:18:30;;;;;;;1.37;1.27;;;10.10;99.90;;;;;;5045736;28;20702;-72
2023/01/07 04:20:56;;;;;;;1.20;1.10;;;10.10;99.90;;;;;;5030162;28;20454;-72
2023/01/07 04:23:22;;;;;;;1.47;1.20;;;10.10;99.90;;;;;;5053052;28;20881;-72
2023/01/07 04:25:49;;;;;;;1.33;1.23;;;10.10;99.90;;;;;;5046055;28;20232;-72
2023/01/07 04:28:18;;;;;;;3.60;1.43;;;10.10;99.90;;;;;;5053177;28;20977;-71
2023/01/07 04:30:44;;;;;;;1.80;1.63;;;10.10;99.90;;;;;;5057432;28;20466;-72
2023/01/07 04:33:09;;;;;;;1.60;1.33;;;10.10;99.90;;;;;;5054433;28;20205;-72
2023/01/07 04:35:38;;;;;;;1.53;1.30;;;10.10;99.90;;;;;;5042883;28;20212;-72
2023/01/07 04:38:05;;;;;;;1.40;1.30;;;10.10;99.90;;;;;;5048699;28;20445;-71
2023/01/07 04:40:31;;;;;;;1.10;1.00;;;10.10;99.90;;;;;;5042481;28;21025;-71
2023/01/07 04:42:58;;;;;;;1.90;1.40;;;10.10;99.90;;;;;;5052679;28;20434;-72
2023/01/07 04:45:25;;;;;;;1.50;1.40;;;10.10;99.90;;;;;;5055967;28;21048;-72
2023/01/07 04:47:54;;;;;;;2.70;0.97;;;10.10;99.90;;;;;;5028940;28;20557;-72
2023/01/07 04:50:20;;;;;;;1.93;1.83;;;10.10;99.90;;;;;;5048032;28;20318;-72
2023/01/07 04:52:46;;;;;;;1.10;1.00;;;10.20;99.90;;;;;;5030021;28;20546;-72
2023/01/07 04:55:12;;;;;;;1.87;1.40;;;10.20;99.90;;;;;;5029510;28;20835;-72
2023/01/07 04:57:37;;;;;;;1.10;1.00;;;10.10;99.90;;;;;;5034603;28;20212;-72
2023/01/07 05:00:05;;;;;;;1.60;1.50;;;10.10;99.90;;;;;;5041385;28;20230;-71
2023/01/07 05:02:32;;;;;;;1.93;1.50;;;10.10;99.90;;;;;;5037117;28;20560;-72
2023/01/07 05:04:58;;;;;;;4.53;2.80;;;10.10;99.90;;;;;;5039678;28;20470;-72
2023/01/07 05:07:24;;;;;;;3.30;2.50;;;10.10;99.90;;;;;;5056390;28;20842;-72
2023/01/07 05:09:51;;;;;;;3.00;2.23;;;10.10;99.90;;;;;;5034437;28;20471;-73
2023/01/07 05:12:17;;;;;;;5.07;2.57;;;10.10;99.90;;;;;;5036711;28;20458;-72
2023/01/07 05:14:43;;;;;;;2.13;1.67;;;10.10;99.90;;;;;;5041800;28;20450;-72
2023/01/07 05:17:08;;;;;;;2.87;2.07;;;10.10;99.90;;;;;;5026293;28;20587;-72
2023/01/07 05:19:36;;;;;;;2.80;2.23;;;10.10;99.90;;;;;;5031197;28;20231;-72
2023/01/07 05:22:02;;;;;;;4.33;2.37;;;10.10;99.90;;;;;;5031244;28;20454;-71
2023/01/07 05:24:27;;;;;;;2.87;1.57;;;10.00;99.90;;;;;;5055270;28;20523;-71
2023/01/07 05:26:53;;;;;;;2.40;2.07;;;10.10;99.90;;;;;;5040741;28;20240;-73
2023/01/07 05:29:19;;;;;;;1.73;1.63;;;10.00;99.90;;;;;;5036690;28;20262;-71
2023/01/07 05:31:46;;;;;;;2.00;1.63;;;10.00;99.90;;;;;;5046287;28;20286;-72
2023/01/07 05:34:12;;;;;;;2.10;1.40;;;10.00;99.90;;;;;;5032646;28;20430;-72
2023/01/07 05:36:38;;;;;;;1.50;1.40;;;10.00;99.90;;;;;;5045906;28;21020;-71
2023/01/07 05:39:05;;;;;;;1.57;1.10;;;10.00;99.90;;;;;;5048357;28;20821;-72
2023/01/07 05:41:31;;;;;;;1.23;1.13;;;10.00;99.90;;;;;;5033819;28;21054;-71
2023/01/07 05:43:57;;;;;;;2.67;1.70;;;10.10;99.90;;;;;;5030709;28;20462;-72
2023/01/07 05:46:23;;;;;;;1.13;1.07;;;10.10;99.90;;;;;;5052350;28;20225;-71
2023/01/07 05:48:49;;;;;;;1.60;1.20;;;10.00;99.90;;;;;;5046293;28;20722;-72
2023/01/07 05:51:15;;;;;;;1.67;1.30;;;10.00;99.90;;;;;;5045211;28;20260;-73
2023/01/07 05:53:40;;;;;;;1.23;1.13;;;10.10;99.90;;;;;;5051970;28;20219;-71
2023/01/07 05:56:06;;;;;;;1.20;1.10;;;10.10;99.90;;;;;;5047204;28;20233;-72
2023/01/07 05:58:32;;;;;;;2.60;1.67;;;10.00;99.90;;;;;;5058521;28;20231;-72
2023/01/07 06:00:57;;;;;;;1.17;1.03;;;10.00;99.90;;;;;;5035427;28;20666;-72
2023/01/07 06:03:23;;;;;;;1.30;1.20;;;10.00;99.90;;;;;;5039646;28;20265;-72
2023/01/07 06:05:49;;;;;;;1.67;1.27;;;10.00;99.90;;;;;;5036882;28;20216;-72
2023/01/07 06:08:15;;;;;;;1.20;1.10;;;10.00;99.90;;;;;;5060258;28;20706;-72
2023/01/07 06:10:41;;;;;;;3.20;1.50;;;10.00;99.90;;;;;;5054375;28;20493;-72
2023/01/07 06:13:07;;;;;;;1.77;1.27;;;10.00;99.90;;;;;;5044875;28;20236;-71
2023/01/07 06:15:32;;;;;;;1.40;1.30;;;10.00;99.90;;;;;;5052782;28;20939;-72
2023/01/07 06:17:58;;;;;;;1.97;1.50;;;10.10;99.90;;;;;;5062245;28;20234;-71
2023/01/07 06:20:24;;;;;;;4.57;1.60;;;10.00;99.90;;;;;;5067424;28;20609;-71
2023/01/07 06:22:49;;;;;;;1.60;1.30;;;10.10;99.90;;;;;;5042578;28;20224;-72
2023/01/07 06:25:15;;;;;;;1.40;1.30;;;10.10;99.90;;;;;;5051472;28;20217;-72
2023/01/07 06:27:41;;;;;;;1.30;1.20;;;10.00;99.90;;;;;;5060378;28;20212;-71
2023/01/07 06:30:09;;;;;;;1.93;1.23;;;10.00;99.90;;;;;;5054688;28;20675;-71
2023/01/07 06:32:42;;;;;;;2.20;1.07;;;10.00;99.90;;;;;;5067843;28;20251;-68
2023/01/07 06:35:10;;;;;;;1.80;1.30;;;10.00;99.90;;;;;;5068437;28;20469;-71
2023/01/07 06:37:36;;;;;;;1.37;1.27;;;10.00;99.90;;;;;;5064249;28;20591;-72
2023/01/07 06:40:02;;;;;;;1.40;1.20;;;10.00;99.90;;;;;;5054841;28;20528;-72
2023/01/07 06:42:28;;;;;;;2.63;1.30;;;10.10;99.90;;;;;;5041281;28;21013;-71
2023/01/07 06:44:54;;;;;;;1.20;1.10;;;10.10;99.90;;;;;;5037419;28;20437;-71
2023/01/07 06:47:20;;;;;;;2.20;1.90;;;10.10;99.90;;;;;;5045788;28;20208;-72
2023/01/07 06:49:45;;;;;;;1.73;1.40;;;10.10;99.90;;;;;;5058536;28;20241;-71
2023/01/07 06:52:11;;;;;;;1.83;1.23;;;10.10;99.90;;;;;;5058554;28;20567;-72
2023/01/07 06:54:36;;;;;;;2.20;1.73;;;10.10;99.90;;;;;;5059037;28;20238;-72
2023/01/07 06:57:02;;;;;;;3.10;1.60;;;10.00;99.90;;;;;;5036753;28;20231;-71
2023/01/07 06:59:28;;;;;;;1.70;1.37;;;9.90;99.90;;;;;;5059482;28;20494;-72
2023/01/07 07:01:54;;;;;;;1.10;1.00;;;9.90;99.90;;;;;;5056072;28;20227;-72
2023/01/07 07:04:19;;;;;;;1.67;1.30;;;9.80;99.90;;;;;;5063547;28;20629;-72
2023/01/07 07:06:45;;;;;;;1.53;1.43;;;9.70;99.90;;;;;;5048441;28;20219;-72
2023/01/07 07:09:11;;;;;;;1.83;1.60;;;9.70;99.90;;;;;;5060502;28;20223;-72
2023/01/07 07:11:36;;;;;;;1.30;1.20;;;9.70;99.90;;;;;;5053124;28;20216;-72
2023/01/07 07:14:03;;;;;;;1.57;1.17;;;9.80;99.90;;;;;;5058511;28;20718;-73
2023/01/07 07:16:28;;;;;;;1.70;1.60;;;9.80;99.90;;;;;;5065921;28;20261;-71
2023/01/07 07:18:54;;;;;;;2.53;1.60;;;9.80;99.90;;;;;;5059829;28;20486;-72
2023/01/07 07:21:20;;;;;;;2.90;1.50;;;9.70;99.90;;;;;;5059365;28;20216;-72
2023/01/07 07:23:46;;;;;;;1.80;1.70;;;9.70;99.90;;;;;;5057003;28;20265;-72
2023/01/07 07:26:11;;;;;;;1.60;1.50;;;9.70;99.90;;;;;;5051502;28;20269;-72
2023/01/07 07:28:37;;;;;;;2.67;2.10;;;9.70;99.90;;;;;;5046954;28;20221;-72
2023/01/07 07:31:03;;;;;;;2.37;1.60;;;9.80;99.90;;;;;;5052712;28;20606;-71
2023/01/07 07:33:29;;;;;;;1.67;1.40;;;9.80;99.90;;;;;;5053003;28;20251;-72
2023/01/07 07:35:55;;;;;;;1.70;1.33;;;9.80;99.90;;;;;;5039389;28;20491;-71
2023/01/07 07:38:21;;;;;;;3.43;1.97;;;9.90;99.90;;;;;;5054036;28;20223;-71
2023/01/07 07:40:47;;;;;;;1.83;1.50;;;9.80;99.90;;;;;;5053332;28;20224;-72
2023/01/07 07:43:13;;;;;;;2.43;1.73;;;9.90;99.90;;;;;;5045196;28;20450;-72
2023/01/07 07:45:40;;;;;;;2.27;1.67;;;9.90;99.90;;;;;;5046659;28;20216;-72
2023/01/07 07:48:07;;;;;;;1.53;1.43;;;9.90;99.90;;;;;;5053980;28;20515;-71
2023/01/07 07:50:33;;;;;;;1.60;1.50;;;9.90;99.90;;;;;;5048265;28;20467;-71
2023/01/07 07:52:59;;;;;;;1.50;1.40;;;9.90;99.90;;;;;;5058094;28;20946;-71
2023/01/07 07:55:24;;;;;;;2.20;1.73;;;9.90;99.90;;;;;;5058931;28;20523;-72
2023/01/07 07:57:53;;;;;;;1.40;1.17;;;9.90;99.90;;;;;;5053673;28;20302;-72
2023/01/07 08:00:18;;;;;;;1.97;1.67;;;9.90;99.90;;;;;;5041036;28;20215;-72
2023/01/07 08:02:44;;;;;;;1.47;1.20;;;9.90;99.90;;;;;;5044469;28;20499;-72
2023/01/07 08:05:11;;;;;;;1.43;1.33;;;9.90;99.90;;;;;;5053624;28;20311;-72
2023/01/07 08:07:37;;;;;;;1.80;0.80;;;9.90;99.90;;;;;;5055136;28;20250;-72
2023/01/07 08:10:04;;;;;;;0.70;0.70;;;9.80;99.90;;;;;;5062344;28;20453;-72
2023/01/07 08:12:30;;;;;;;1.30;1.00;;;9.70;99.90;;;;;;5060476;28;20860;-71
2023/01/07 08:14:56;;;;;;;1.33;0.97;;;9.70;99.90;;;;;;5061661;28;20470;-72
2023/01/07 08:17:21;;;;;;;0.80;0.80;;;9.70;99.90;;;;;;5062021;28;20452;-71
2023/01/07 08:19:47;;;;;;;0.90;0.90;;;9.60;99.90;;;;;;5034977;28;20216;-72
2023/01/07 08:22:13;;;;;;;1.00;0.80;;;9.60;99.90;;;;;;5058725;28;20587;-72
2023/01/07 08:24:38;;;;;;;1.27;1.17;;;9.60;99.90;;;;;;5045729;28;20247;-68
2023/01/07 08:27:04;;;;;;;1.20;1.03;;;9.60;99.90;;;;;;5047311;28;20247;-71
2023/01/07 08:29:30;;;;;;;0.73;0.70;;;9.60;99.90;;;;;;5033216;28;20225;-71
2023/01/07 08:31:55;;;;;;;0.83;0.70;;;9.60;99.90;;;;;;5034379;28;20576;-72
2023/01/07 08:34:21;;;;;;;1.33;0.77;;;9.60;99.90;;;;;;5032371;28;20215;-72
2023/01/07 08:36:47;;;;;;;2.43;1.30;;;9.60;99.90;;;;;;5055121;28;20228;-72
2023/01/07 08:39:12;;;;;;;1.07;0.97;;;9.60;99.90;;;;;;5059047;28;20222;-72
2023/01/07 08:41:38;;;;;;;0.80;0.80;;;9.50;99.90;;;;;;5056428;28;20230;-72
2023/01/07 08:44:04;;;;;;;0.80;0.80;;;9.50;99.90;;;;;;5037287;28;20214;-72
2023/01/07 08:46:29;;;;;;;0.93;0.90;;;9.50;99.90;;;;;;5048642;28;20219;-72
2023/01/07 08:48:55;;;;;;;0.77;0.77;;;9.50;99.90;;;;;;5059473;28;20231;-72
2023/01/07 08:51:21;;;;;;;0.90;0.90;;;9.50;99.90;;;;;;5033286;28;20224;-72
2023/01/07 08:53:46;;;;;;;1.00;1.00;;;9.50;99.90;;;;;;5056599;28;20218;-72
2023/01/07 08:56:12;;;;;;;0.80;0.73;;;9.50;99.90;;;;;;5048533;28;20242;-72
2023/01/07 08:58:38;;;;;;;1.20;1.10;;;9.50;99.90;;;;;;5054267;28;20629;-72
2023/01/07 09:01:05;;;;;;;1.20;1.10;;;9.50;99.90;;;;;;5045345;28;20268;-72
2023/01/07 09:03:31;;;;;;;1.57;1.40;;;9.50;99.90;;;;;;5048451;28;20219;-72
2023/01/07 09:05:58;;;;;;;1.53;1.27;;;9.50;99.90;;;;;;5033007;28;20442;-72
2023/01/07 09:08:24;;;;;;;3.03;1.43;;;9.50;99.90;;;;;;5034808;28;20596;-73
2023/01/07 09:10:50;;;;;;;1.90;1.30;;;9.50;99.90;;;;;;5047430;28;20508;-72
2023/01/07 09:13:15;;;;;;;0.83;0.83;;;9.50;99.90;;;;;;5060604;28;20470;-71
2023/01/07 09:15:41;;;;;;;4.83;1.33;;;9.50;99.90;;;;;;5045694;28;20220;-71
2023/01/07 09:18:07;;;;;;;1.13;1.03;;;9.50;99.90;;;;;;5054865;28;20212;-72
2023/01/07 09:20:32;;;;;;;1.20;1.10;;;9.50;99.90;;;;;;5056558;28;20241;-70
2023/01/07 09:22:58;;;;;;;1.20;1.17;;;9.50;99.90;;;;;;5029606;28;20216;-72
2023/01/07 09:25:24;;;;;;;1.50;1.40;;;9.50;99.90;;;;;;5049603;28;20223;-72
2023/01/07 09:27:49;;;;;;;1.73;1.63;;;9.50;99.90;;;;;;5049987;28;20228;-72
2023/01/07 09:30:15;;;;;;;2.07;1.57;;;9.50;99.90;;;;;;5051215;28;20296;-72
2023/01/07 09:32:42;;;;;;;1.77;1.27;;;9.50;99.90;;;;;;5045448;28;20330;-72
2023/01/07 09:35:08;;;;;;;1.87;1.50;;;9.50;99.90;;;;;;5040562;28;20513;-72
2023/01/07 09:37:34;;;;;;;2.20;1.73;;;9.50;99.90;;;;;;5031297;28;21048;-73
2023/01/07 09:40:00;;;;;;;2.37;1.97;;;9.50;99.90;;;;;;5049586;28;20469;-72
2023/01/07 09:42:44;;;;;;;2.67;1.60;;;9.60;99.90;;;;;;5048381;28;20627;-72
2023/01/07 09:45:18;;;;;;;2.40;2.00;;;9.60;99.90;;;;;;5046424;28;20220;-72
2023/01/07 09:47:52;;;;;;;1.60;1.50;;;9.60;99.90;;;;;;5050925;28;20508;-70
2023/01/07 09:50:38;;;;;;;2.53;1.80;;;9.60;99.90;;;;;;5059069;28;20517;-72
2023/01/07 09:53:11;;;;;;;1.60;1.50;;;9.60;99.90;;;;;;5047877;28;20519;-72
2023/01/07 09:55:41;;;;;;;3.20;1.90;;;9.60;99.90;;;;;;5049828;28;20525;-72
2023/01/07 09:58:18;;;;;;;1.93;1.73;;;9.60;99.90;;;;;;5049736;28;20473;-71
2023/01/07 10:01:14;;;;;;;3.10;2.23;;;9.70;99.90;;;;;;5051381;28;20500;-72
2023/01/07 10:04:14;;;;;;;2.30;2.10;;;9.70;99.90;;;;;;5058633;28;20519;-73
2023/01/07 10:07:08;;;;;;;3.23;2.93;;;9.70;99.90;;;;;;5064094;28;20465;-73
2023/01/07 10:09:59;;;;;;;3.53;2.50;;;9.70;99.90;;;;;;5050427;28;20532;-71
2023/01/07 10:12:47;;;;;;;2.63;2.40;;;9.70;99.90;;;;;;5052243;28;20458;-73
2023/01/07 10:15:34;;;;;;;2.33;2.07;;;9.70;99.90;;;;;;5035095;28;20538;-73
2023/01/07 10:18:00;;;;;;;3.40;2.40;;;9.80;99.90;;;;;;5047932;28;20456;-73
2023/01/07 10:20:50;;;;;;;2.40;2.20;;;9.80;99.90;;;;;;5047358;28;20443;-72
2023/01/07 10:23:22;;;;;;;5.27;3.50;;;9.80;99.90;;;;;;5053918;28;20268;-73
2023/01/07 10:25:52;;;;;;;4.10;2.10;;;9.80;99.90;;;;;;5053181;28;20454;-72
2023/01/07 10:28:43;;;;;;;3.70;3.07;;;9.80;99.90;;;;;;5057176;28;20460;-75
2023/01/07 10:31:22;;;;;;;2.90;2.67;;;9.80;99.90;;;;;;5038723;28;20455;-72
2023/01/07 10:33:50;;;;;;;3.40;2.93;;;9.90;99.90;;;;;;5036353;28;20512;-72
2023/01/07 10:36:15;;;;;;;3.60;3.27;;;9.90;99.90;;;;;;5038610;28;20462;-72
2023/01/07 10:38:46;;;;;;;3.33;2.60;;;9.90;99.90;;;;;;5031549;28;20458;-71
2023/01/07 10:41:25;;;;;;;3.37;3.07;;;9.90;99.90;;;;;;5053294;28;20745;-72
2023/01/07 10:44:20;;;;;;;5.57;4.30;;;9.90;99.90;;;;;;5048138;28;20473;-72
2023/01/07 10:46:54;;;;;;;8.27;4.00;;;9.90;99.90;;;;;;5049919;28;20497;-72
2023/01/07 10:49:58;;;;;;;8.63;4.03;;;10.00;99.90;;;;;;5053345;28;20448;-73
2023/01/07 10:52:38;;;;;;;8.63;4.40;;;10.00;99.90;;;;;;5030501;28;20472;-72
2023/01/07 10:55:18;;;;;;;8.03;5.20;;;10.00;99.90;;;;;;5032585;28;20871;-72
2023/01/07 10:57:46;;;;;;;5.60;4.73;;;10.00;99.90;;;;;;5049160;28;20458;-72
2023/01/07 11:00:14;;;;;;;6.83;6.23;;;10.10;99.90;;;;;;5059920;28;20856;-72
2023/01/07 11:02:49;;;;;;;10.00;7.40;;;10.10;99.90;;;;;;5056162;28;20470;-72
2023/01/07 11:05:19;;;;;;;7.20;6.20;;;10.10;99.90;;;;;;5056005;28;20507;-72
2023/01/07 11:07:48;;;;;;;3.53;3.13;;;10.10;99.90;;;;;;5049828;28;20462;-69
2023/01/07 11:10:27;;;;;;;4.27;3.87;;;10.10;99.90;;;;;;5029522;28;20467;-71
2023/01/07 11:13:07;;;;;;;3.97;3.33;;;10.10;99.90;;;;;;5029685;28;20466;-72
2023/01/07 11:15:44;;;;;;;4.33;3.20;;;10.10;99.90;;;;;;5050452;28;20480;-73
2023/01/07 11:18:35;;;;;;;4.47;3.67;;;10.10;99.90;;;;;;5036762;28;20458;-72
2023/01/07 11:21:02;;;;;;;5.20;3.20;;;10.10;99.90;;;;;;5050770;28;20526;-73
2023/01/07 11:23:44;;;;;;;7.10;4.47;;;10.10;99.90;;;;;;5047447;28;20867;-72
2023/01/07 11:26:12;;;;;;;6.00;4.50;;;10.10;99.90;;;;;;5046589;28;20453;-72
2023/01/07 11:29:15;;;;;;;6.13;4.37;;;10.10;99.90;;;;;;5043426;28;20466;-72
2023/01/07 11:31:46;;;;;;;5.80;5.20;;;10.10;99.90;;;;;;5044689;28;20465;-71
2023/01/07 11:34:21;;;;;;;6.73;6.00;;;10.10;99.90;;;;;;5048707;28;20442;-73
2023/01/07 11:36:47;;;;;;;6.57;5.90;;;10.20;99.90;;;;;;5055878;28;20481;-72
2023/01/07 11:39:25;;;;;;;5.77;4.80;;;10.20;99.90;;;;;;5058271;28;20511;-72
2023/01/07 11:41:54;;;;;;;5.00;3.70;;;10.20;99.90;;;;;;5056978;28;20218;-72
2023/01/07 11:44:20;;;;;;;4.87;3.37;;;10.20;99.90;;;;;;5065921;28;20544;-72
2023/01/07 11:46:46;;;;;;;3.80;3.40;;;10.20;99.90;;;;;;5047141;28;20565;-72
2023/01/07 11:49:42;;;;;;;4.00;3.70;;;10.20;99.90;;;;;;5055668;28;20307;-72
2023/01/07 11:52:19;;;;;;;3.43;3.13;;;10.20;99.90;;;;;;5045284;28;20315;-72
2023/01/07 11:54:53;;;;;;;3.97;3.67;;;10.20;99.90;;;;;;5042652;28;20455;-72
2023/01/07 11:57:25;;;;;;;3.63;3.33;;;10.20;99.90;;;;;;5047414;28;20477;-73
2023/01/07 12:00:12;;;;;;;3.60;3.30;;;10.20;99.90;;;;;;5044604;28;20462;-73
2023/01/07 12:02:38;;;;;;;4.33;3.70;;;10.20;99.90;;;;;;5043839;28;20553;-72
2023/01/07 12:05:23;;;;;;;3.03;2.73;;;10.20;99.90;;;;;;5029067;28;20542;-72
2023/01/07 12:07:50;;;;;;;5.43;2.97;;;10.20;99.90;;;;;;5034027;28;20216;-73
2023/01/07 12:10:26;;;;;;;3.27;2.97;;;10.20;99.90;;;;;;5029644;28;20518;-72
2023/01/07 12:12:52;;;;;;;3.47;2.57;;;10.20;99.90;;;;;;5050935;28;20480;-71
2023/01/07 12:15:22;;;;;;;3.60;2.80;;;10.20;99.90;;;;;;5034855;28;20474;-73
2023/01/07 12:18:02;;;;;;;12.90;2.50;;;10.20;99.90;;;;;;5039703;28;20212;-72
2023/01/07 12:20:38;;;;;;;3.53;3.03;;;10.20;99.90;;;;;;5049581;28;20481;-71
2023/01/07 12:23:30;;;;;;;3.53;3.23;;;10.20;99.90;;;;;;5034640;28;20462;-72
2023/01/07 12:26:16;;;;;;;4.37;3.50;;;10.20;99.90;;;;;;5061497;28;21026;-72
2023/01/07 12:29:02;;;;;;;3.50;3.20;;;10.10;99.90;;;;;;5052908;28;20462;-72
2023/01/07 12:31:42;;;;;;;3.40;3.10;;;10.10;99.90;;;;;;5050173;28;20493;-73
2023/01/07 12:34:50;;;;;;;5.43;3.80;;;10.10;99.90;;;;;;5046570;28;20453;-72
2023/01/07 12:37:32;;;;;;;3.40;2.90;;;10.10;99.90;;;;;;5048922;28;20474;-72
2023/01/07 12:40:11;;;;;;;4.07;3.67;;;10.10;99.90;;;;;;5061677;28;20446;-73
2023/01/07 12:42:41;;;;;;;4.80;3.50;;;10.10;99.90;;;;;;5052142;28;20828;-70
2023/01/07 12:45:17;;;;;;;3.80;2.80;;;10.00;99.90;;;;;;5048864;28;20458;-72
2023/01/07 12:47:53;;;;;;;4.50;3.50;;;10.10;99.90;;;;;;5054912;28;20505;-71
2023/01/07 12:50:28;;;;;;;5.67;3.23;;;10.10;99.90;;;;;;5051163;28;20520;-73
2023/01/07 12:52:59;;;;;;;3.03;2.73;;;10.10;99.90;;;;;;5033558;28;20502;-72
2023/01/07 12:55:30;;;;;;;3.93;2.73;;;10.10;99.90;;;;;;5054849;28;20467;-73
2023/01/07 12:58:00;;;;;;;4.80;3.20;;;10.10;99.90;;;;;;5045998;28;20527;-74
2023/01/07 13:00:34;;;;;;;3.80;2.90;;;10.10;99.90;;;;;;5053421;28;20502;-72
2023/01/07 13:03:11;;;;;;;2.50;2.30;;;10.10;99.90;;;;;;5031970;28;20472;-72
2023/01/07 13:05:41;;;;;;;5.43;3.03;;;10.10;99.90;;;;;;5051292;28;20462;-72
2023/01/07 13:08:39;;;;;;;4.17;3.47;;;10.10;99.90;;;;;;5051728;28;20455;-71